sensor_id;sensor_type;location;lat;lon;timestamp;temperature;humidity
20364;DHT22;10340;53.664;9.908;2022-12-18T00:00:00;-6.90;99.90
20364;DHT22;10340;53.664;9.908;2022-12-18T00:02:27;-6.90;99.90
20364;DHT22;10340;53.664;9.908;2022-12-18T00:04:54;-7.00;99.90
20364;DHT22;10340;53.664;9.908;2022-12-18T00:07:22;-7.00;99.90
20364;DHT22;10340;53.664;9.908;2022-12-18T00:09:49;-7.00;99.90
20364;DHT22;10340;53.664;9.908;2022-12-18T00:12:16;-7.00;99.90
20364;DHT22;10340;53.664;9.908;2022-12-18T00:14:43;-7.00;99.90
20364;DHT22;10340;53.664;9.908;2022-12-18T00:17:10;-7.00;99.90
20364;DHT22;10340;53.664;9.908;2022-12-18T00:19:39;-6.90;99.90
20364;DHT22;10340;53.664;9.908;2022-12-18T00:22:06;-6.90;99.90
20364;DHT22;10340;53.664;9.908;2022-12-18T00:24:34;-6.90;99.90
20364;DHT22;10340;53.664;9.908;2022-12-18T00:27:01;-6.90;99.90
20364;DHT22;10340;53.664;9.908;2022-12-18T00:29:28;-6.90;99.90
20364;DHT22;10340;53.664;9.908;2022-12-18T00:31:55;-6.90;99.90
20364;DHT22;10340;53.664;9.908;2022-12-18T00:34:22;-6.90;99.90
20364;DHT22;10340;53.664;9.908;2022-12-18T00:36:49;-6.90;99.90
20364;DHT22;10340;53.664;9.908;2022-12-18T00:39:16;-6.90;99.90
20364;DHT22;10340;53.664;9.908;2022-12-18T00:41:44;-6.90;99.90
20364;DHT22;10340;53.664;9.908;2022-12-18T00:44:28;-6.90;99.90
20364;DHT22;10340;53.664;9.908;2022-12-18T00:46:55;-7.00;99.90
20364;DHT22;10340;53.664;9.908;2022-12-18T00:49:22;-7.00;99.90
20364;DHT22;10340;53.664;9.908;2022-12-18T00:51:49;-7.00;99.90
20364;DHT22;10340;53.664;9.908;2022-12-18T00:54:17;-7.00;99.90
20364;DHT22;10340;53.664;9.908;2022-12-18T00:56:45;-7.10;99.90
20364;DHT22;10340;53.664;9.908;2022-12-18T00:59:12;-7.10;99.90
20364;DHT22;10340;53.664;9.908;2022-12-18T01:01:39;-7.20;99.90
20364;DHT22;10340;53.664;9.908;2022-12-18T01:04:06;-7.20;99.90
20364;DHT22;10340;53.664;9.908;2022-12-18T01:06:33;-7.20;99.90
20364;DHT22;10340;53.664;9.908;2022-12-18T01:09:01;-7.30;99.90
20364;DHT22;10340;53.664;9.908;2022-12-18T01:11:28;-7.30;99.90
20364;DHT22;10340;53.664;9.908;2022-12-18T01:13:57;-7.30;99.90
20364;DHT22;10340;53.664;9.908;2022-12-18T01:16:24;-7.30;99.90
20364;DHT22;10340;53.664;9.908;2022-12-18T01:18:52;-6.90;99.90
20364;DHT22;10340;53.664;9.908;2022-12-18T01:21:20;-7.40;99.90
20364;DHT22;10340;53.664;9.908;2022-12-18T01:23:51;-7.40;99.90
20364;DHT22;10340;53.664;9.908;2022-12-18T01:26:18;-7.50;99.90
20364;DHT22;10340;53.664;9.908;2022-12-18T01:28:45;-7.50;99.90
20364;DHT22;10340;53.664;9.908;2022-12-18T01:31:16;-7.50;99.90
20364;DHT22;10340;53.664;9.908;2022-12-18T01:33:44;-7.60;99.90
20364;DHT22;10340;53.664;9.908;2022-12-18T01:36:16;-7.50;99.90
20364;DHT22;10340;53.664;9.908;2022-12-18T01:38:44;-7.60;99.90
20364;DHT22;10340;53.664;9.908;2022-12-18T01:41:11;-7.60;99.90
20364;DHT22;10340;53.664;9.908;2022-12-18T01:43:48;-7.70;99.90
20364;DHT22;10340;53.664;9.908;2022-12-18T01:46:17;-7.60;99.90
20364;DHT22;10340;53.664;9.908;2022-12-18T01:48:45;-7.60;99.90
20364;DHT22;10340;53.664;9.908;2022-12-18T01:51:13;-7.50;99.90
20364;DHT22;10340;53.664;9.908;2022-12-18T01:53:42;-7.50;99.90
20364;DHT22;10340;53.664;9.908;2022-12-18T01:56:13;-7.40;99.90
20364;DHT22;10340;53.664;9.908;2022-12-18T01:58:48;-7.40;99.90
20364;DHT22;10340;53.664;9.908;2022-12-18T02:01:20;-7.40;99.90
20364;DHT22;10340;53.664;9.908;2022-12-18T02:03:48;-7.40;99.90
20364;DHT22;10340;53.664;9.908;2022-12-18T02:06:17;-7.40;99.90
20364;DHT22;10340;53.664;9.908;2022-12-18T02:08:53;-7.40;99.90
20364;DHT22;10340;53.664;9.908;2022-12-18T02:11:32;-7.40;99.90
20364;DHT22;10340;53.664;9.908;2022-12-18T02:14:05;-7.40;99.90
20364;DHT22;10340;53.664;9.908;2022-12-18T02:16:42;-7.40;99.90
20364;DHT22;10340;53.664;9.908;2022-12-18T02:19:27;-7.40;99.90
20364;DHT22;10340;53.664;9.908;2022-12-18T02:22:07;-7.50;99.90
20364;DHT22;10340;53.664;9.908;2022-12-18T02:24:43;-7.50;99.90
20364;DHT22;10340;53.664;9.908;2022-12-18T02:27:13;-7.50;99.90
20364;DHT22;10340;53.664;9.908;2022-12-18T02:29:43;-7.40;99.90
20364;DHT22;10340;53.664;9.908;2022-12-18T02:32:16;-7.50;99.90
20364;DHT22;10340;53.664;9.908;2022-12-18T02:34:46;-7.40;99.90
20364;DHT22;10340;53.664;9.908;2022-12-18T02:37:16;-7.50;99.90
20364;DHT22;10340;53.664;9.908;2022-12-18T02:39:46;-7.40;99.90
20364;DHT22;10340;53.664;9.908;2022-12-18T02:42:16;-7.40;99.90
20364;DHT22;10340;53.664;9.908;2022-12-18T02:44:46;-7.50;99.90
20364;DHT22;10340;53.664;9.908;2022-12-18T02:47:14;-7.50;99.90
20364;DHT22;10340;53.664;9.908;2022-12-18T02:49:48;-7.60;99.90
20364;DHT22;10340;53.664;9.908;2022-12-18T02:52:24;-7.60;99.90
20364;DHT22;10340;53.664;9.908;2022-12-18T02:55:00;-7.70;99.90
20364;DHT22;10340;53.664;9.908;2022-12-18T02:57:39;-7.70;99.90
20364;DHT22;10340;53.664;9.908;2022-12-18T03:00:11;-7.80;99.90
20364;DHT22;10340;53.664;9.908;2022-12-18T03:02:41;-7.80;99.90
20364;DHT22;10340;53.664;9.908;2022-12-18T03:05:14;-7.80;99.90
20364;DHT22;10340;53.664;9.908;2022-12-18T03:07:46;-7.80;99.90
20364;DHT22;10340;53.664;9.908;2022-12-18T03:10:19;-7.80;99.90
20364;DHT22;10340;53.664;9.908;2022-12-18T03:12:52;-7.90;99.90
20364;DHT22;10340;53.664;9.908;2022-12-18T03:15:24;-7.90;99.90
20364;DHT22;10340;53.664;9.908;2022-12-18T03:17:55;-7.90;99.90
20364;DHT22;10340;53.664;9.908;2022-12-18T03:20:24;-7.90;99.90
20364;DHT22;10340;53.664;9.908;2022-12-18T03:22:57;-7.90;99.90
20364;DHT22;10340;53.664;9.908;2022-12-18T03:25:26;-8.00;99.90
20364;DHT22;10340;53.664;9.908;2022-12-18T03:27:58;-8.00;99.90
20364;DHT22;10340;53.664;9.908;2022-12-18T03:30:28;-8.00;99.90
20364;DHT22;10340;53.664;9.908;2022-12-18T03:33:01;-8.10;99.90
20364;DHT22;10340;53.664;9.908;2022-12-18T03:35:33;-8.10;99.90
20364;DHT22;10340;53.664;9.908;2022-12-18T03:38:01;-8.10;99.90
20364;DHT22;10340;53.664;9.908;2022-12-18T03:40:31;-8.10;99.90
20364;DHT22;10340;53.664;9.908;2022-12-18T03:43:08;-8.10;99.90
20364;DHT22;10340;53.664;9.908;2022-12-18T03:45:41;-8.10;99.90
20364;DHT22;10340;53.664;9.908;2022-12-18T03:48:12;-8.10;99.90
20364;DHT22;10340;53.664;9.908;2022-12-18T03:50:47;-8.20;99.90
20364;DHT22;10340;53.664;9.908;2022-12-18T03:53:25;-8.20;99.90
20364;DHT22;10340;53.664;9.908;2022-12-18T03:55:57;-8.20;99.90
20364;DHT22;10340;53.664;9.908;2022-12-18T03:58:27;-8.20;99.90
20364;DHT22;10340;53.664;9.908;2022-12-18T04:00:58;-8.20;99.90
20364;DHT22;10340;53.664;9.908;2022-12-18T04:03:28;-8.20;99.90
20364;DHT22;10340;53.664;9.908;2022-12-18T04:05:59;-8.20;99.90
20364;DHT22;10340;53.664;9.908;2022-12-18T04:08:27;-8.20;99.90
20364;DHT22;10340;53.664;9.908;2022-12-18T04:10:55;-8.20;99.90
20364;DHT22;10340;53.664;9.908;2022-12-18T04:13:22;-8.30;99.90
20364;DHT22;10340;53.664;9.908;2022-12-18T04:15:51;-8.30;99.90
20364;DHT22;10340;53.664;9.908;2022-12-18T04:18:18;-8.30;99.90
20364;DHT22;10340;53.664;9.908;2022-12-18T04:20:45;-8.30;99.90
20364;DHT22;10340;53.664;9.908;2022-12-18T04:23:12;-8.30;99.90
20364;DHT22;10340;53.664;9.908;2022-12-18T04:25:39;-8.30;99.90
20364;DHT22;10340;53.664;9.908;2022-12-18T04:28:06;-8.30;99.90
20364;DHT22;10340;53.664;9.908;2022-12-18T04:30:33;-8.30;99.90
20364;DHT22;10340;53.664;9.908;2022-12-18T04:33:01;-8.30;99.90
20364;DHT22;10340;53.664;9.908;2022-12-18T04:35:28;-8.30;99.90
20364;DHT22;10340;53.664;9.908;2022-12-18T04:37:55;-8.30;99.90
20364;DHT22;10340;53.664;9.908;2022-12-18T04:40:22;-8.30;99.90
20364;DHT22;10340;53.664;9.908;2022-12-18T04:42:49;-8.30;99.90
20364;DHT22;10340;53.664;9.908;2022-12-18T04:45:16;-8.30;99.90
20364;DHT22;10340;53.664;9.908;2022-12-18T04:47:43;-8.30;99.90
20364;DHT22;10340;53.664;9.908;2022-12-18T04:50:12;-8.20;99.90
20364;DHT22;10340;53.664;9.908;2022-12-18T04:52:38;-8.30;99.90
20364;DHT22;10340;53.664;9.908;2022-12-18T04:55:06;-8.20;99.90
20364;DHT22;10340;53.664;9.908;2022-12-18T04:57:33;-8.20;99.90
20364;DHT22;10340;53.664;9.908;2022-12-18T05:00:00;-8.20;99.90
20364;DHT22;10340;53.664;9.908;2022-12-18T05:02:27;-8.20;99.90
20364;DHT22;10340;53.664;9.908;2022-12-18T05:04:54;-8.20;99.90
20364;DHT22;10340;53.664;9.908;2022-12-18T05:07:22;-8.20;99.90
20364;DHT22;10340;53.664;9.908;2022-12-18T05:09:49;-8.10;99.90
20364;DHT22;10340;53.664;9.908;2022-12-18T05:12:16;-8.10;99.90
20364;DHT22;10340;53.664;9.908;2022-12-18T05:14:43;-8.10;99.90
20364;DHT22;10340;53.664;9.908;2022-12-18T05:17:10;-8.10;99.90
20364;DHT22;10340;53.664;9.908;2022-12-18T05:19:37;-8.20;99.90
20364;DHT22;10340;53.664;9.908;2022-12-18T05:22:04;-8.20;99.90
20364;DHT22;10340;53.664;9.908;2022-12-18T05:24:32;-8.20;99.90
20364;DHT22;10340;53.664;9.908;2022-12-18T05:26:59;-8.20;99.90
20364;DHT22;10340;53.664;9.908;2022-12-18T05:29:26;-8.20;99.90
20364;DHT22;10340;53.664;9.908;2022-12-18T05:31:53;-8.10;99.90
20364;DHT22;10340;53.664;9.908;2022-12-18T05:34:20;-8.00;99.90
20364;DHT22;10340;53.664;9.908;2022-12-18T05:36:47;-8.00;99.90
20364;DHT22;10340;53.664;9.908;2022-12-18T05:39:14;-8.00;99.90
20364;DHT22;10340;53.664;9.908;2022-12-18T05:41:42;-7.90;99.90
20364;DHT22;10340;53.664;9.908;2022-12-18T05:44:09;-7.90;99.90
20364;DHT22;10340;53.664;9.908;2022-12-18T05:46:36;-7.90;99.90
20364;DHT22;10340;53.664;9.908;2022-12-18T05:49:03;-7.80;99.90
20364;DHT22;10340;53.664;9.908;2022-12-18T05:51:30;-7.80;99.90
20364;DHT22;10340;53.664;9.908;2022-12-18T05:53:57;-7.80;99.90
20364;DHT22;10340;53.664;9.908;2022-12-18T05:56:24;-7.70;99.90
20364;DHT22;10340;53.664;9.908;2022-12-18T05:58:53;-7.70;99.90
20364;DHT22;10340;53.664;9.908;2022-12-18T06:01:24;-7.60;99.90
20364;DHT22;10340;53.664;9.908;2022-12-18T06:03:52;-7.60;99.90
20364;DHT22;10340;53.664;9.908;2022-12-18T06:06:20;-7.60;99.90
20364;DHT22;10340;53.664;9.908;2022-12-18T06:08:47;-7.60;99.90
20364;DHT22;10340;53.664;9.908;2022-12-18T06:11:18;-7.50;99.90
20364;DHT22;10340;53.664;9.908;2022-12-18T06:13:45;-7.50;99.90
20364;DHT22;10340;53.664;9.908;2022-12-18T06:16:14;-7.50;99.90
20364;DHT22;10340;53.664;9.908;2022-12-18T06:18:40;-7.40;99.90
20364;DHT22;10340;53.664;9.908;2022-12-18T06:21:08;-7.40;99.90
20364;DHT22;10340;53.664;9.908;2022-12-18T06:23:35;-7.40;99.90
20364;DHT22;10340;53.664;9.908;2022-12-18T06:26:04;-7.40;99.90
20364;DHT22;10340;53.664;9.908;2022-12-18T06:28:32;-7.40;99.90
20364;DHT22;10340;53.664;9.908;2022-12-18T06:30:59;-7.40;99.90
20364;DHT22;10340;53.664;9.908;2022-12-18T06:33:27;-7.40;99.90
20364;DHT22;10340;53.664;9.908;2022-12-18T06:35:58;-7.40;99.90
20364;DHT22;10340;53.664;9.908;2022-12-18T06:38:26;-7.40;99.90
20364;DHT22;10340;53.664;9.908;2022-12-18T06:40:53;-7.30;99.90
20364;DHT22;10340;53.664;9.908;2022-12-18T06:43:20;-7.30;99.90
20364;DHT22;10340;53.664;9.908;2022-12-18T06:45:47;-7.30;99.90
20364;DHT22;10340;53.664;9.908;2022-12-18T06:48:18;-7.30;99.90
20364;DHT22;10340;53.664;9.908;2022-12-18T06:50:47;-7.30;99.90
20364;DHT22;10340;53.664;9.908;2022-12-18T06:53:14;-7.30;99.90
20364;DHT22;10340;53.664;9.908;2022-12-18T06:55:41;-7.30;99.90
20364;DHT22;10340;53.664;9.908;2022-12-18T06:58:08;-7.20;99.90
20364;DHT22;10340;53.664;9.908;2022-12-18T07:00:35;-7.20;99.90
20364;DHT22;10340;53.664;9.908;2022-12-18T07:03:02;-7.20;99.90
20364;DHT22;10340;53.664;9.908;2022-12-18T07:05:29;-7.20;99.90
20364;DHT22;10340;53.664;9.908;2022-12-18T07:07:58;-7.20;99.90
20364;DHT22;10340;53.664;9.908;2022-12-18T07:10:25;-7.20;99.90
20364;DHT22;10340;53.664;9.908;2022-12-18T07:12:52;-7.20;99.90
20364;DHT22;10340;53.664;9.908;2022-12-18T07:15:19;-7.20;99.90
20364;DHT22;10340;53.664;9.908;2022-12-18T07:17:46;-7.10;99.90
20364;DHT22;10340;53.664;9.908;2022-12-18T07:20:13;-7.20;99.90
20364;DHT22;10340;53.664;9.908;2022-12-18T07:22:40;-7.20;99.90
20364;DHT22;10340;53.664;9.908;2022-12-18T07:25:09;-7.20;99.90
20364;DHT22;10340;53.664;9.908;2022-12-18T07:27:36;-7.20;99.90
20364;DHT22;10340;53.664;9.908;2022-12-18T07:30:03;-7.20;99.90
20364;DHT22;10340;53.664;9.908;2022-12-18T07:32:31;-7.20;99.90
20364;DHT22;10340;53.664;9.908;2022-12-18T07:34:58;-7.20;99.90
20364;DHT22;10340;53.664;9.908;2022-12-18T07:37:25;-7.30;99.90
20364;DHT22;10340;53.664;9.908;2022-12-18T07:39:52;-7.20;99.90
20364;DHT22;10340;53.664;9.908;2022-12-18T07:42:20;-7.20;99.90
20364;DHT22;10340;53.664;9.908;2022-12-18T07:45:00;-7.20;99.90
20364;DHT22;10340;53.664;9.908;2022-12-18T07:47:28;-7.20;99.90
20364;DHT22;10340;53.664;9.908;2022-12-18T07:49:55;-7.30;99.90
20364;DHT22;10340;53.664;9.908;2022-12-18T07:52:22;-7.30;99.90
20364;DHT22;10340;53.664;9.908;2022-12-18T07:54:49;-7.20;99.90
20364;DHT22;10340;53.664;9.908;2022-12-18T07:57:16;-7.20;99.90
20364;DHT22;10340;53.664;9.908;2022-12-18T07:59:45;-7.20;99.90
20364;DHT22;10340;53.664;9.908;2022-12-18T08:02:12;-7.20;99.90
20364;DHT22;10340;53.664;9.908;2022-12-18T08:04:39;-7.10;99.90
20364;DHT22;10340;53.664;9.908;2022-12-18T08:07:06;-7.10;99.90
20364;DHT22;10340;53.664;9.908;2022-12-18T08:09:33;-7.10;99.90
20364;DHT22;10340;53.664;9.908;2022-12-18T08:12:00;-7.00;99.90
20364;DHT22;10340;53.664;9.908;2022-12-18T08:14:27;-7.00;99.90
20364;DHT22;10340;53.664;9.908;2022-12-18T08:16:55;-6.90;99.90
20364;DHT22;10340;53.664;9.908;2022-12-18T08:19:22;-6.90;99.90
20364;DHT22;10340;53.664;9.908;2022-12-18T08:21:49;-6.80;99.90
20364;DHT22;10340;53.664;9.908;2022-12-18T08:24:16;-6.70;99.90
20364;DHT22;10340;53.664;9.908;2022-12-18T08:26:43;-6.60;99.90
20364;DHT22;10340;53.664;9.908;2022-12-18T08:29:10;-6.60;99.90
20364;DHT22;10340;53.664;9.908;2022-12-18T08:31:37;-6.50;99.90
20364;DHT22;10340;53.664;9.908;2022-12-18T08:34:05;-6.40;99.90
20364;DHT22;10340;53.664;9.908;2022-12-18T08:36:32;-6.40;99.90
20364;DHT22;10340;53.664;9.908;2022-12-18T08:38:59;-6.30;99.90
20364;DHT22;10340;53.664;9.908;2022-12-18T08:41:26;-6.30;99.90
20364;DHT22;10340;53.664;9.908;2022-12-18T08:43:53;-6.20;99.90
20364;DHT22;10340;53.664;9.908;2022-12-18T08:46:40;-6.10;99.90
20364;DHT22;10340;53.664;9.908;2022-12-18T08:49:09;-6.10;99.90
20364;DHT22;10340;53.664;9.908;2022-12-18T08:51:37;-6.00;99.90
20364;DHT22;10340;53.664;9.908;2022-12-18T08:54:05;-5.80;99.90
20364;DHT22;10340;53.664;9.908;2022-12-18T08:56:32;-5.80;99.90
20364;DHT22;10340;53.664;9.908;2022-12-18T08:58:59;-5.70;99.90
20364;DHT22;10340;53.664;9.908;2022-12-18T09:01:26;-5.60;99.90
20364;DHT22;10340;53.664;9.908;2022-12-18T09:03:54;-5.60;99.90
20364;DHT22;10340;53.664;9.908;2022-12-18T09:06:22;-5.50;99.90
20364;DHT22;10340;53.664;9.908;2022-12-18T09:08:50;-5.40;99.90
20364;DHT22;10340;53.664;9.908;2022-12-18T09:11:20;-5.40;99.90
20364;DHT22;10340;53.664;9.908;2022-12-18T09:13:47;-5.30;99.90
20364;DHT22;10340;53.664;9.908;2022-12-18T09:16:15;-5.30;99.90
20364;DHT22;10340;53.664;9.908;2022-12-18T09:18:46;-5.20;99.90
20364;DHT22;10340;53.664;9.908;2022-12-18T09:21:14;-5.10;99.90
20364;DHT22;10340;53.664;9.908;2022-12-18T09:23:43;-5.10;99.90
20364;DHT22;10340;53.664;9.908;2022-12-18T09:26:10;-5.00;99.90
20364;DHT22;10340;53.664;9.908;2022-12-18T09:28:37;-4.90;99.90
20364;DHT22;10340;53.664;9.908;2022-12-18T09:31:06;-4.90;99.90
20364;DHT22;10340;53.664;9.908;2022-12-18T09:33:36;-4.80;99.90
20364;DHT22;10340;53.664;9.908;2022-12-18T09:36:05;-4.70;99.90
20364;DHT22;10340;53.664;9.908;2022-12-18T09:38:32;-4.60;99.90
20364;DHT22;10340;53.664;9.908;2022-12-18T09:41:04;-4.50;99.90
20364;DHT22;10340;53.664;9.908;2022-12-18T09:43:35;-4.40;99.90
20364;DHT22;10340;53.664;9.908;2022-12-18T09:46:07;-4.30;99.90
20364;DHT22;10340;53.664;9.908;2022-12-18T09:48:38;-4.20;99.90
20364;DHT22;10340;53.664;9.908;2022-12-18T09:51:13;-4.10;99.90
20364;DHT22;10340;53.664;9.908;2022-12-18T09:53:46;-4.00;99.90
20364;DHT22;10340;53.664;9.908;2022-12-18T09:56:18;-3.90;99.90
20364;DHT22;10340;53.664;9.908;2022-12-18T09:58:55;-3.80;99.90
20364;DHT22;10340;53.664;9.908;2022-12-18T10:01:25;-3.70;99.90
20364;DHT22;10340;53.664;9.908;2022-12-18T10:03:53;-3.60;99.90
20364;DHT22;10340;53.664;9.908;2022-12-18T10:06:23;-3.50;99.90
20364;DHT22;10340;53.664;9.908;2022-12-18T10:08:56;-3.50;99.90
20364;DHT22;10340;53.664;9.908;2022-12-18T10:11:37;-3.40;99.90
20364;DHT22;10340;53.664;9.908;2022-12-18T10:14:10;-3.30;99.90
20364;DHT22;10340;53.664;9.908;2022-12-18T10:16:51;-3.20;99.90
20364;DHT22;10340;53.664;9.908;2022-12-18T10:19:39;-3.10;99.90
20364;DHT22;10340;53.664;9.908;2022-12-18T10:22:21;-3.00;99.90
20364;DHT22;10340;53.664;9.908;2022-12-18T10:24:55;-2.90;99.90
20364;DHT22;10340;53.664;9.908;2022-12-18T10:27:28;-2.90;99.90
20364;DHT22;10340;53.664;9.908;2022-12-18T10:29:56;-2.90;99.90
20364;DHT22;10340;53.664;9.908;2022-12-18T10:32:25;-2.80;99.90
20364;DHT22;10340;53.664;9.908;2022-12-18T10:34:55;-2.80;99.90
20364;DHT22;10340;53.664;9.908;2022-12-18T10:37:23;-2.70;99.90
20364;DHT22;10340;53.664;9.908;2022-12-18T10:40:08;-2.60;99.90
20364;DHT22;10340;53.664;9.908;2022-12-18T10:42:37;-2.60;99.90
20364;DHT22;10340;53.664;9.908;2022-12-18T10:45:10;-2.60;99.90
20364;DHT22;10340;53.664;9.908;2022-12-18T10:47:42;-2.60;99.90
20364;DHT22;10340;53.664;9.908;2022-12-18T10:50:19;-2.50;99.90
20364;DHT22;10340;53.664;9.908;2022-12-18T10:52:54;-2.40;99.90
20364;DHT22;10340;53.664;9.908;2022-12-18T10:55:22;-2.30;99.90
20364;DHT22;10340;53.664;9.908;2022-12-18T10:57:51;-2.20;99.90
20364;DHT22;10340;53.664;9.908;2022-12-18T11:00:23;-2.10;99.90
20364;DHT22;10340;53.664;9.908;2022-12-18T11:02:51;-2.00;99.90
20364;DHT22;10340;53.664;9.908;2022-12-18T11:05:25;-1.90;99.90
20364;DHT22;10340;53.664;9.908;2022-12-18T11:07:52;-1.90;99.90
20364;DHT22;10340;53.664;9.908;2022-12-18T11:10:22;-1.80;99.90
20364;DHT22;10340;53.664;9.908;2022-12-18T11:12:50;-1.70;99.90
20364;DHT22;10340;53.664;9.908;2022-12-18T11:15:20;-1.60;99.90
20364;DHT22;10340;53.664;9.908;2022-12-18T11:17:50;-1.60;99.90
20364;DHT22;10340;53.664;9.908;2022-12-18T11:20:27;-1.60;99.90
20364;DHT22;10340;53.664;9.908;2022-12-18T11:22:58;-1.50;99.90
20364;DHT22;10340;53.664;9.908;2022-12-18T11:25:29;-1.40;99.90
20364;DHT22;10340;53.664;9.908;2022-12-18T11:28:00;-1.30;99.90
20364;DHT22;10340;53.664;9.908;2022-12-18T11:30:30;-1.30;99.90
20364;DHT22;10340;53.664;9.908;2022-12-18T11:33:01;-1.30;99.90
20364;DHT22;10340;53.664;9.908;2022-12-18T11:35:36;-1.30;99.90
20364;DHT22;10340;53.664;9.908;2022-12-18T11:38:12;-1.30;99.90
20364;DHT22;10340;53.664;9.908;2022-12-18T11:40:45;-1.20;99.90
20364;DHT22;10340;53.664;9.908;2022-12-18T11:43:16;-1.20;99.90
20364;DHT22;10340;53.664;9.908;2022-12-18T11:45:49;-1.20;99.90
20364;DHT22;10340;53.664;9.908;2022-12-18T11:48:22;-1.20;99.90
20364;DHT22;10340;53.664;9.908;2022-12-18T11:50:51;-1.10;99.90
20364;DHT22;10340;53.664;9.908;2022-12-18T11:53:20;-1.20;99.90
20364;DHT22;10340;53.664;9.908;2022-12-18T11:56:00;-1.20;99.90
20364;DHT22;10340;53.664;9.908;2022-12-18T11:58:47;-1.20;99.90
20364;DHT22;10340;53.664;9.908;2022-12-18T12:01:27;-1.10;99.90
20364;DHT22;10340;53.664;9.908;2022-12-18T12:04:09;-1.20;99.90
20364;DHT22;10340;53.664;9.908;2022-12-18T12:06:47;-1.20;99.90
20364;DHT22;10340;53.664;9.908;2022-12-18T12:09:21;-1.30;99.90
20364;DHT22;10340;53.664;9.908;2022-12-18T12:12:10;-1.30;99.90
20364;DHT22;10340;53.664;9.908;2022-12-18T12:14:49;-1.30;99.90
20364;DHT22;10340;53.664;9.908;2022-12-18T12:17:27;-1.40;99.90
20364;DHT22;10340;53.664;9.908;2022-12-18T12:20:02;-1.30;99.90
20364;DHT22;10340;53.664;9.908;2022-12-18T12:22:39;-1.30;99.90
20364;DHT22;10340;53.664;9.908;2022-12-18T12:25:20;-1.40;99.90
20364;DHT22;10340;53.664;9.908;2022-12-18T12:27:56;-1.30;99.90
20364;DHT22;10340;53.664;9.908;2022-12-18T12:30:32;-1.40;99.90
20364;DHT22;10340;53.664;9.908;2022-12-18T12:33:11;-1.50;99.90
20364;DHT22;10340;53.664;9.908;2022-12-18T12:35:47;-1.50;99.90
20364;DHT22;10340;53.664;9.908;2022-12-18T12:38:19;-1.50;99.90
20364;DHT22;10340;53.664;9.908;2022-12-18T12:40:51;-1.50;99.90
20364;DHT22;10340;53.664;9.908;2022-12-18T12:43:32;-1.50;99.90
20364;DHT22;10340;53.664;9.908;2022-12-18T12:46:06;-1.50;99.90
20364;DHT22;10340;53.664;9.908;2022-12-18T12:48:43;-1.50;99.90
20364;DHT22;10340;53.664;9.908;2022-12-18T12:51:19;-1.50;99.90
20364;DHT22;10340;53.664;9.908;2022-12-18T12:53:47;-1.50;99.90
20364;DHT22;10340;53.664;9.908;2022-12-18T12:56:17;-1.40;99.90
20364;DHT22;10340;53.664;9.908;2022-12-18T12:58:55;-1.40;99.90
20364;DHT22;10340;53.664;9.908;2022-12-18T13:01:32;-1.40;99.90
20364;DHT22;10340;53.664;9.908;2022-12-18T13:04:10;-1.40;99.90
20364;DHT22;10340;53.664;9.908;2022-12-18T13:06:45;-1.40;99.90
20364;DHT22;10340;53.664;9.908;2022-12-18T13:09:13;-1.30;99.90
20364;DHT22;10340;53.664;9.908;2022-12-18T13:11:42;-1.40;99.90
20364;DHT22;10340;53.664;9.908;2022-12-18T13:14:31;-1.30;99.90
20364;DHT22;10340;53.664;9.908;2022-12-18T13:17:29;-1.20;99.90
20364;DHT22;10340;53.664;9.908;2022-12-18T13:20:11;-1.20;99.90
20364;DHT22;10340;53.664;9.908;2022-12-18T13:22:42;-1.10;99.90
20364;DHT22;10340;53.664;9.908;2022-12-18T13:25:33;-1.10;99.90
20364;DHT22;10340;53.664;9.908;2022-12-18T13:28:07;-1.10;99.90
20364;DHT22;10340;53.664;9.908;2022-12-18T13:33:43;-1.20;99.90
20364;DHT22;10340;53.664;9.908;2022-12-18T13:36:26;-1.20;99.90
20364;DHT22;10340;53.664;9.908;2022-12-18T13:39:24;-1.30;99.90
20364;DHT22;10340;53.664;9.908;2022-12-18T13:41:52;-1.40;99.90
20364;DHT22;10340;53.664;9.908;2022-12-18T13:44:32;-1.40;99.90
20364;DHT22;10340;53.664;9.908;2022-12-18T13:47:00;-1.50;99.90
20364;DHT22;10340;53.664;9.908;2022-12-18T13:49:35;-1.50;99.90
20364;DHT22;10340;53.664;9.908;2022-12-18T13:52:15;-1.50;99.90
20364;DHT22;10340;53.664;9.908;2022-12-18T13:54:43;-1.60;99.90
20364;DHT22;10340;53.664;9.908;2022-12-18T13:57:26;-1.70;99.90
20364;DHT22;10340;53.664;9.908;2022-12-18T13:59:54;-1.80;99.90
20364;DHT22;10340;53.664;9.908;2022-12-18T14:02:23;-1.80;99.90
20364;DHT22;10340;53.664;9.908;2022-12-18T14:04:52;-1.90;99.90
20364;DHT22;10340;53.664;9.908;2022-12-18T14:07:22;-1.90;99.90
20364;DHT22;10340;53.664;9.908;2022-12-18T14:09:51;-2.00;99.90
20364;DHT22;10340;53.664;9.908;2022-12-18T14:12:21;-2.00;99.90
20364;DHT22;10340;53.664;9.908;2022-12-18T14:15:13;-2.10;99.90
20364;DHT22;10340;53.664;9.908;2022-12-18T14:17:47;-2.10;99.90
20364;DHT22;10340;53.664;9.908;2022-12-18T14:20:16;-2.10;99.90
20364;DHT22;10340;53.664;9.908;2022-12-18T14:22:45;-2.20;99.90
20364;DHT22;10340;53.664;9.908;2022-12-18T14:25:18;-2.30;99.90
20364;DHT22;10340;53.664;9.908;2022-12-18T14:27:47;-2.30;99.90
20364;DHT22;10340;53.664;9.908;2022-12-18T14:30:33;-2.30;99.90
20364;DHT22;10340;53.664;9.908;2022-12-18T14:33:03;-2.40;99.90
20364;DHT22;10340;53.664;9.908;2022-12-18T14:35:31;-2.50;99.90
20364;DHT22;10340;53.664;9.908;2022-12-18T14:38:20;-2.50;99.90
20364;DHT22;10340;53.664;9.908;2022-12-18T14:40:51;-2.60;99.90
20364;DHT22;10340;53.664;9.908;2022-12-18T14:43:18;-2.50;99.90
20364;DHT22;10340;53.664;9.908;2022-12-18T14:45:46;-2.60;99.90
20364;DHT22;10340;53.664;9.908;2022-12-18T14:48:16;-2.70;99.90
20364;DHT22;10340;53.664;9.908;2022-12-18T14:50:45;-2.80;99.90
20364;DHT22;10340;53.664;9.908;2022-12-18T14:53:23;-2.80;99.90
20364;DHT22;10340;53.664;9.908;2022-12-18T14:55:54;-2.80;99.90
20364;DHT22;10340;53.664;9.908;2022-12-18T14:58:22;-2.80;99.90
20364;DHT22;10340;53.664;9.908;2022-12-18T15:00:49;-2.80;99.90
20364;DHT22;10340;53.664;9.908;2022-12-18T15:03:18;-2.90;99.90
20364;DHT22;10340;53.664;9.908;2022-12-18T15:05:48;-2.90;99.90
20364;DHT22;10340;53.664;9.908;2022-12-18T15:08:30;-3.00;99.90
20364;DHT22;10340;53.664;9.908;2022-12-18T15:10:57;-3.10;99.90
20364;DHT22;10340;53.664;9.908;2022-12-18T15:13:25;-3.00;99.90
20364;DHT22;10340;53.664;9.908;2022-12-18T15:15:52;-3.00;99.90
20364;DHT22;10340;53.664;9.908;2022-12-18T15:18:23;-2.20;99.90
20364;DHT22;10340;53.664;9.908;2022-12-18T15:20:56;-3.10;99.90
20364;DHT22;10340;53.664;9.908;2022-12-18T15:23:26;-3.10;99.90
20364;DHT22;10340;53.664;9.908;2022-12-18T15:25:59;-3.10;99.90
20364;DHT22;10340;53.664;9.908;2022-12-18T15:28:30;-3.10;99.90
20364;DHT22;10340;53.664;9.908;2022-12-18T15:31:05;-3.20;99.90
20364;DHT22;10340;53.664;9.908;2022-12-18T15:33:33;-3.20;99.90
20364;DHT22;10340;53.664;9.908;2022-12-18T15:36:04;-3.20;99.90
20364;DHT22;10340;53.664;9.908;2022-12-18T15:38:31;-3.20;99.90
20364;DHT22;10340;53.664;9.908;2022-12-18T15:40:59;-3.20;99.90
20364;DHT22;10340;53.664;9.908;2022-12-18T15:43:29;-3.20;99.90
20364;DHT22;10340;53.664;9.908;2022-12-18T15:46:03;-3.10;99.90
20364;DHT22;10340;53.664;9.908;2022-12-18T15:48:33;-3.10;99.90
20364;DHT22;10340;53.664;9.908;2022-12-18T15:51:01;-3.10;99.90
20364;DHT22;10340;53.664;9.908;2022-12-18T15:53:30;-3.10;99.90